createdAt,value
2023-11-15T00:00:12.261Z,98420.97
2023-11-15T00:02:41.113Z,98424.88
2023-11-15T00:05:08.624Z,98436.16
2023-11-15T00:07:35.892Z,98444.03
2023-11-15T00:10:05.145Z,98432.66
2023-11-15T00:12:33.473Z,98426.66
2023-11-15T00:15:01.191Z,98442.16
2023-11-15T00:17:32.155Z,98431.09
2023-11-15T00:20:05.006Z,98427.38
2023-11-15T00:22:32.924Z,98454.91
2023-11-15T00:25:00.303Z,98477.88
2023-11-15T00:27:30.866Z,98477.41
2023-11-15T00:29:58.535Z,98486.03
2023-11-15T00:32:25.635Z,98490.66
2023-11-15T00:34:52.772Z,98483.53
2023-11-15T00:37:20.300Z,98477.69
2023-11-15T00:39:47.551Z,98471.03
2023-11-15T00:42:17.614Z,98472.00
2023-11-15T00:44:45.754Z,98474.72
2023-11-15T00:47:14.779Z,98467.97
2023-11-15T00:49:45.152Z,98452.28
2023-11-15T00:52:15.146Z,98444.72
2023-11-15T00:54:42.878Z,98440.00
2023-11-15T00:57:09.972Z,98440.97
2023-11-15T00:59:45.245Z,98445.59
2023-11-15T01:02:13.049Z,98449.91
2023-11-15T01:04:42.704Z,98434.03
2023-11-15T01:07:09.747Z,98428.94
2023-11-15T01:09:37.488Z,98428.28
2023-11-15T01:12:08.496Z,98433.94
2023-11-15T01:14:35.996Z,98427.00
2023-11-15T01:17:04.270Z,98421.16
2023-11-15T01:19:31.865Z,98426.31
2023-11-15T01:21:59.620Z,98431.81
2023-11-15T01:24:27.178Z,98430.41
2023-11-15T01:26:56.783Z,98443.06
2023-11-15T01:29:24.612Z,98445.50
2023-11-15T01:31:51.994Z,98451.09
2023-11-15T01:34:24.780Z,98457.69
2023-11-15T01:36:52.392Z,98476.75
2023-11-15T01:39:22.047Z,98468.50
2023-11-15T01:41:50.975Z,98477.13
2023-11-15T01:44:20.711Z,98471.84
2023-11-15T01:46:50.783Z,98462.84
2023-11-15T01:49:21.993Z,98461.34
2023-11-15T01:51:55.530Z,98454.78
2023-11-15T01:54:24.116Z,98440.63
2023-11-15T01:56:51.986Z,98426.31
2023-11-15T01:59:19.796Z,98430.94
2023-11-15T02:01:52.328Z,98450.50
2023-11-15T02:04:20.649Z,98460.06
2023-11-15T02:06:48.051Z,98447.19
2023-11-15T02:09:18.544Z,98438.94
2023-11-15T02:11:45.920Z,98436.31
2023-11-15T02:14:13.133Z,98430.63
2023-11-15T02:16:45.925Z,98437.03
2023-11-15T02:19:17.016Z,98427.22
2023-11-15T02:21:44.476Z,98422.25
2023-11-15T02:24:11.860Z,98406.38
2023-11-15T02:26:47.348Z,98414.25
2023-11-15T02:29:14.754Z,98390.03
2023-11-15T02:31:42.356Z,98387.59
2023-11-15T02:34:10.342Z,98383.25
2023-11-15T02:36:51.768Z,98394.72
2023-11-15T02:39:20.676Z,98378.81
2023-11-15T02:41:48.652Z,98370.22
2023-11-15T02:44:16.238Z,98384.66
2023-11-15T02:46:43.381Z,98380.41
2023-11-15T02:49:11.356Z,98381.25
2023-11-15T02:51:40.317Z,98395.47
2023-11-15T02:54:07.481Z,98392.25
2023-11-15T02:56:34.860Z,98384.00
2023-11-15T02:59:02.420Z,98374.56
2023-11-15T03:01:29.484Z,98375.16
2023-11-15T03:03:58.421Z,98374.88
2023-11-15T03:06:26.762Z,98385.97
2023-11-15T03:08:55.660Z,98391.84
2023-11-15T03:11:23.888Z,98385.91
2023-11-15T03:13:51.258Z,98370.25
2023-11-15T03:16:18.883Z,98371.16
2023-11-15T03:18:47.768Z,98378.47
2023-11-15T03:21:15.468Z,98366.72
2023-11-15T03:23:42.618Z,98390.16
2023-11-15T03:26:11.080Z,98396.69
2023-11-15T03:28:38.344Z,98402.53
2023-11-15T03:31:07.148Z,98411.62
2023-11-15T03:33:35.660Z,98410.19
2023-11-15T03:36:02.913Z,98412.69
2023-11-15T03:38:31.729Z,98413.63
2023-11-15T03:41:01.814Z,98408.06
2023-11-15T03:43:28.881Z,98406.59
2023-11-15T03:45:57.308Z,98407.31
2023-11-15T03:48:24.767Z,98400.59
2023-11-15T03:50:54.641Z,98407.69
2023-11-15T03:53:22.892Z,98405.44
2023-11-15T03:55:53.997Z,98403.38
2023-11-15T03:58:24.267Z,98406.16
2023-11-15T04:00:52.146Z,98401.00
2023-11-15T04:03:23.224Z,98396.75
2023-11-15T04:05:51.047Z,98399.22
2023-11-15T04:08:18.815Z,98399.84
2023-11-15T04:10:49.687Z,98403.62
2023-11-15T04:13:18.833Z,98413.06
2023-11-15T04:15:46.239Z,98410.44
2023-11-15T04:18:13.507Z,98416.50
2023-11-15T04:20:42.005Z,98415.41
2023-11-15T04:23:09.433Z,98400.59
2023-11-15T04:25:37.667Z,98400.09
2023-11-15T04:28:05.899Z,98396.84
2023-11-15T04:30:34.664Z,98398.22
2023-11-15T04:33:02.320Z,98401.94
2023-11-15T04:35:30.012Z,98403.94
2023-11-15T04:37:57.896Z,98399.53
2023-11-15T04:40:28.023Z,98401.94
2023-11-15T04:42:55.689Z,98393.13
2023-11-15T04:45:24.009Z,98397.75
2023-11-15T04:47:51.256Z,98400.72
2023-11-15T04:50:18.475Z,98401.97
2023-11-15T04:52:48.130Z,98401.06
2023-11-15T04:55:15.783Z,98402.66
2023-11-15T04:57:42.809Z,98390.63
2023-11-15T05:00:12.527Z,98393.41
2023-11-15T05:02:59.572Z,98397.12
2023-11-15T05:05:30.645Z,98390.22
2023-11-15T05:07:58.825Z,98386.03
2023-11-15T05:10:27.205Z,98391.50
2023-11-15T05:12:54.585Z,98391.81
2023-11-15T05:15:21.746Z,98402.63
2023-11-15T05:17:49.350Z,98401.88
2023-11-15T05:20:19.769Z,98406.47
2023-11-15T05:22:47.982Z,98408.94
2023-11-15T05:25:17.472Z,98408.94
2023-11-15T05:27:46.387Z,98397.69
2023-11-15T05:30:17.138Z,98398.03
2023-11-15T05:32:44.830Z,98406.88
2023-11-15T05:35:14.084Z,98408.97
2023-11-15T05:37:43.584Z,98406.19
2023-11-15T05:40:14.306Z,98405.34
2023-11-15T05:42:43.105Z,98414.22
2023-11-15T05:45:13.990Z,98402.88
2023-11-15T05:47:41.409Z,98405.03
2023-11-15T05:50:10.820Z,98412.50
2023-11-15T05:52:39.237Z,98413.44
2023-11-15T05:55:08.479Z,98411.22
2023-11-15T05:57:36.073Z,98419.12
2023-11-15T06:00:19.550Z,98413.84
2023-11-15T06:02:49.712Z,98414.38
2023-11-15T06:05:18.227Z,98422.00
2023-11-15T06:07:46.479Z,98422.81
2023-11-15T06:10:15.981Z,98422.38
2023-11-15T06:12:44.227Z,98417.28
2023-11-15T06:15:12.505Z,98420.53
2023-11-15T06:17:41.273Z,98422.91
2023-11-15T06:20:18.812Z,98415.41
2023-11-15T06:22:47.916Z,98419.12
2023-11-15T06:25:20.052Z,98411.81
2023-11-15T06:27:47.629Z,98412.28
2023-11-15T06:30:15.161Z,98416.19
2023-11-15T06:32:42.455Z,98413.63
2023-11-15T06:35:10.212Z,98426.41
2023-11-15T06:37:37.962Z,98426.53
2023-11-15T06:40:09.082Z,98427.78
2023-11-15T06:42:37.323Z,98432.81
2023-11-15T06:45:05.736Z,98424.22
2023-11-15T06:47:34.279Z,98422.94
2023-11-15T06:50:05.698Z,98422.28
2023-11-15T06:52:33.866Z,98421.25
2023-11-15T06:55:04.635Z,98416.75
2023-11-15T06:57:32.283Z,98431.03
2023-11-15T07:00:00.002Z,98420.91
2023-11-15T07:02:28.278Z,98419.47
2023-11-15T07:04:56.860Z,98419.75
2023-11-15T07:07:23.948Z,98422.19
2023-11-15T07:09:51.504Z,98412.69
2023-11-15T07:12:21.965Z,98409.66
2023-11-15T07:14:49.509Z,98417.81
2023-11-15T07:17:19.362Z,98404.28
2023-11-15T07:19:50.184Z,98418.78
2023-11-15T07:22:17.580Z,98411.84
2023-11-15T07:24:44.734Z,98419.16
2023-11-15T07:27:11.849Z,98426.25
2023-11-15T07:29:39.317Z,98422.25
2023-11-15T07:32:08.818Z,98417.94
2023-11-15T07:34:37.180Z,98423.63
2023-11-15T07:37:05.228Z,98413.00
2023-11-15T07:39:32.338Z,98412.78
2023-11-15T07:42:00.579Z,98423.13
2023-11-15T07:44:31.357Z,98421.84
2023-11-15T07:47:00.210Z,98417.13
2023-11-15T07:49:30.121Z,98417.88
2023-11-15T07:51:57.268Z,98414.06
2023-11-15T07:54:25.451Z,98431.72
2023-11-15T07:56:53.944Z,98424.53
2023-11-15T07:59:23.142Z,98425.28
2023-11-15T08:01:50.414Z,98417.66
2023-11-15T08:04:18.566Z,98417.78
2023-11-15T08:06:46.938Z,98425.16
2023-11-15T08:09:28.188Z,98438.00
2023-11-15T08:11:57.062Z,98439.69
2023-11-15T08:14:26.374Z,98436.81
2023-11-15T08:16:55.701Z,98443.16
2023-11-15T08:19:24.064Z,98434.44
2023-11-15T08:21:53.265Z,98444.56
2023-11-15T08:24:23.795Z,98446.78
2023-11-15T08:26:54.594Z,98449.56
2023-11-15T08:29:23.183Z,98446.59
2023-11-15T08:31:52.650Z,98452.75
2023-11-15T08:34:23.841Z,98470.81
2023-11-15T08:36:52.332Z,98461.37
2023-11-15T08:39:23.338Z,98476.87
2023-11-15T08:41:52.214Z,98452.41
2023-11-15T08:44:19.635Z,98466.88
2023-11-15T08:46:49.249Z,98478.09
2023-11-15T08:49:19.547Z,98469.31
2023-11-15T08:51:51.585Z,98488.47
2023-11-15T08:54:19.848Z,98482.25
2023-11-15T08:56:48.224Z,98504.91
2023-11-15T08:59:20.172Z,98493.13
2023-11-15T09:01:48.721Z,98493.34
2023-11-15T09:04:17.208Z,98489.72
2023-11-15T09:06:49.696Z,98513.34
2023-11-15T09:09:18.643Z,98521.38
2023-11-15T09:11:49.063Z,98527.38
2023-11-15T09:14:16.431Z,98530.31
2023-11-15T09:16:46.128Z,98564.50
2023-11-15T09:19:22.395Z,98535.31
2023-11-15T09:21:50.715Z,98540.84
2023-11-15T09:24:23.899Z,98545.97
2023-11-15T09:26:52.463Z,98548.19
2023-11-15T09:29:20.708Z,98555.88
2023-11-15T09:31:48.601Z,98555.66
2023-11-15T09:34:17.772Z,98558.41
2023-11-15T09:36:49.075Z,98557.41
2023-11-15T09:39:17.661Z,98584.19
2023-11-15T09:41:54.934Z,98578.75
2023-11-15T09:44:24.964Z,98561.41
2023-11-15T09:46:59.812Z,98581.31
2023-11-15T09:49:27.567Z,98588.59
2023-11-15T09:51:55.332Z,98571.78
2023-11-15T09:54:24.529Z,98581.75
2023-11-15T09:56:52.698Z,98585.72
2023-11-15T09:59:20.474Z,98593.59
2023-11-15T10:01:50.652Z,98594.72
2023-11-15T10:04:22.476Z,98595.09
2023-11-15T10:07:06.149Z,98592.38
2023-11-15T10:09:41.569Z,98609.47
2023-11-15T10:12:10.349Z,98588.38
2023-11-15T10:14:54.271Z,98593.13
2023-11-15T10:17:39.637Z,98575.56
2023-11-15T10:20:19.751Z,98574.59
2023-11-15T10:22:48.515Z,98585.56
2023-11-15T10:25:16.626Z,98578.56
2023-11-15T10:27:44.330Z,98592.09
2023-11-15T10:30:17.449Z,98589.59
2023-11-15T10:32:46.716Z,98602.44
2023-11-15T10:35:30.367Z,98611.09
2023-11-15T10:37:58.670Z,98608.22
2023-11-15T10:40:31.303Z,98616.38
2023-11-15T10:43:00.146Z,98614.97
2023-11-15T10:45:29.487Z,98621.22
2023-11-15T10:48:11.353Z,98635.81
2023-11-15T10:50:43.682Z,98640.97
2023-11-15T10:53:13.114Z,98654.16
2023-11-15T10:55:41.613Z,98637.03
2023-11-15T10:58:12.516Z,98667.00
2023-11-15T11:00:44.764Z,98654.16
2023-11-15T11:03:25.674Z,98652.91
2023-11-15T11:06:00.485Z,98665.50
2023-11-15T11:08:38.216Z,98658.44
2023-11-15T11:11:11.995Z,98669.53
2023-11-15T11:13:42.256Z,98664.47
2023-11-15T11:16:41.672Z,98668.34
2023-11-15T11:19:28.504Z,98670.84
2023-11-15T11:22:05.650Z,98673.88
2023-11-15T11:25:00.537Z,98653.38
2023-11-15T11:27:31.132Z,98670.03
2023-11-15T11:30:01.815Z,98682.31
2023-11-15T11:32:33.408Z,98678.25
2023-11-15T11:35:01.767Z,98682.34
2023-11-15T11:38:05.431Z,98678.16
2023-11-15T11:40:35.339Z,98677.22
2023-11-15T11:43:16.260Z,98676.91
2023-11-15T11:45:48.192Z,98673.56
2023-11-15T11:48:27.229Z,98663.56
2023-11-15T11:51:05.036Z,98674.50
2023-11-15T11:53:40.424Z,98690.28
2023-11-15T11:56:12.183Z,98676.16
2023-11-15T11:58:40.605Z,98692.56
2023-11-15T12:01:12.576Z,98680.16
2023-11-15T12:03:47.761Z,98679.69
2023-11-15T12:06:15.766Z,98677.06
2023-11-15T12:08:52.700Z,98684.72
2023-11-15T12:11:25.180Z,98682.66
2023-11-15T12:13:53.977Z,98668.88
2023-11-15T12:16:26.954Z,98701.28
2023-11-15T12:19:07.035Z,98694.06
2023-11-15T12:21:39.571Z,98692.88
2023-11-15T12:24:07.889Z,98684.84
2023-11-15T12:26:44.504Z,98681.44
2023-11-15T12:29:27.794Z,98682.63
2023-11-15T12:31:58.236Z,98693.84
2023-11-15T12:34:28.767Z,98704.16
2023-11-15T12:36:57.093Z,98718.75
2023-11-15T12:39:24.759Z,98714.88
2023-11-15T12:41:54.756Z,98717.00
2023-11-15T12:44:22.714Z,98721.72
2023-11-15T12:46:52.439Z,98723.69
2023-11-15T12:49:25.127Z,98725.22
2023-11-15T12:51:55.684Z,98725.25
2023-11-15T12:54:23.734Z,98737.91
2023-11-15T12:57:14.168Z,98753.66
2023-11-15T12:59:49.320Z,98747.53
2023-11-15T13:02:32.074Z,98744.25
2023-11-15T13:05:04.720Z,98741.75
2023-11-15T13:07:34.475Z,98748.12
2023-11-15T13:10:05.116Z,98750.56
2023-11-15T13:12:33.881Z,98753.81
2023-11-15T13:15:02.147Z,98750.56
2023-11-15T13:17:30.558Z,98756.59
2023-11-15T13:20:01.713Z,98766.84
2023-11-15T13:22:31.694Z,98764.09
2023-11-15T13:24:59.558Z,98765.03
2023-11-15T13:27:27.509Z,98770.16
2023-11-15T13:29:57.926Z,98766.34
2023-11-15T13:32:26.498Z,98765.59
2023-11-15T13:34:55.425Z,98766.56
2023-11-15T13:37:25.917Z,98777.50
2023-11-15T13:39:53.524Z,98776.63
2023-11-15T13:42:21.326Z,98780.25
2023-11-15T13:44:49.245Z,98787.69
2023-11-15T13:47:17.232Z,98795.94
2023-11-15T13:49:47.891Z,98803.09
2023-11-15T13:52:21.255Z,98818.16
2023-11-15T13:54:48.951Z,98808.88
2023-11-15T13:57:18.909Z,98814.16
2023-11-15T13:59:46.757Z,98825.06
2023-11-15T14:02:14.678Z,98823.19
2023-11-15T14:04:42.791Z,98827.72
2023-11-15T14:07:11.856Z,98834.81
2023-11-15T14:09:39.780Z,98832.06
2023-11-15T14:12:08.105Z,98833.44
2023-11-15T14:14:40.164Z,98844.44
2023-11-15T14:17:08.440Z,98850.37
2023-11-15T14:19:38.072Z,98854.62
2023-11-15T14:22:07.977Z,98852.19
2023-11-15T14:24:36.293Z,98861.41
2023-11-15T14:27:05.208Z,98862.59
2023-11-15T14:29:32.933Z,98861.44
2023-11-15T14:32:02.063Z,98873.72
2023-11-15T14:34:30.055Z,98873.50
2023-11-15T14:36:58.350Z,98870.94
2023-11-15T14:39:27.955Z,98866.16
2023-11-15T14:41:55.747Z,98876.44
2023-11-15T14:44:25.359Z,98882.66
2023-11-15T14:46:54.496Z,98881.19
2023-11-15T14:49:22.246Z,98885.00
2023-11-15T14:51:59.846Z,98886.25
2023-11-15T14:54:31.147Z,98902.87
2023-11-15T14:56:59.589Z,98898.75
2023-11-15T14:59:28.377Z,98901.69
2023-11-15T15:01:55.500Z,98905.81
2023-11-15T15:04:24.528Z,98909.63
2023-11-15T15:06:52.313Z,98912.59
2023-11-15T15:09:20.234Z,98914.41
2023-11-15T15:11:47.768Z,98918.94
2023-11-15T15:14:17.050Z,98910.16
2023-11-15T15:16:44.501Z,98924.97
2023-11-15T15:19:11.882Z,98932.59
2023-11-15T15:21:42.644Z,98926.87
2023-11-15T15:24:10.570Z,98931.59
2023-11-15T15:26:37.662Z,98937.56
2023-11-15T15:29:07.820Z,98933.53
2023-11-15T15:31:41.661Z,98946.09
2023-11-15T15:34:09.905Z,98941.41
2023-11-15T15:36:38.319Z,98946.12
2023-11-15T15:39:08.166Z,98951.88
2023-11-15T15:41:36.061Z,98950.75
2023-11-15T15:44:03.834Z,98952.06
2023-11-15T15:46:34.147Z,98957.47
2023-11-15T15:49:02.011Z,98962.88
2023-11-15T15:51:29.455Z,98962.88
2023-11-15T15:53:59.970Z,98960.00
2023-11-15T15:56:30.559Z,98963.16
2023-11-15T15:58:57.710Z,98964.13
2023-11-15T16:01:29.159Z,98967.03
2023-11-15T16:03:56.747Z,98974.44
2023-11-15T16:06:24.366Z,98974.50
2023-11-15T16:08:56.953Z,98973.84
2023-11-15T16:11:24.885Z,98980.06
2023-11-15T16:13:52.081Z,98981.03
2023-11-15T16:16:20.455Z,98984.16
2023-11-15T16:18:47.922Z,98987.84
2023-11-15T16:21:15.292Z,98992.84
2023-11-15T16:23:46.274Z,98997.94
2023-11-15T16:26:16.635Z,99006.34
2023-11-15T16:28:45.664Z,99005.91
2023-11-15T16:31:20.128Z,99014.12
2023-11-15T16:33:50.341Z,99009.69
2023-11-15T16:36:17.900Z,99014.50
2023-11-15T16:38:47.601Z,99020.81
2023-11-15T16:41:16.938Z,99023.47
2023-11-15T16:43:44.035Z,99032.53
2023-11-15T16:46:12.847Z,99035.63
2023-11-15T16:48:41.784Z,99035.38
2023-11-15T16:51:11.628Z,99037.06
2023-11-15T16:53:41.953Z,99042.53
2023-11-15T16:56:11.459Z,99039.63
2023-11-15T16:58:39.383Z,99035.09
2023-11-15T17:01:09.054Z,99042.16
2023-11-15T17:03:36.389Z,99043.31
2023-11-15T17:06:04.830Z,99050.56
2023-11-15T17:08:34.220Z,99049.22
2023-11-15T17:11:01.854Z,99057.19
2023-11-15T17:13:29.034Z,99057.53
2023-11-15T17:15:56.426Z,99053.69
2023-11-15T17:18:23.636Z,99054.34
2023-11-15T17:20:51.323Z,99054.91
2023-11-15T17:23:20.644Z,99061.69
2023-11-15T17:25:52.495Z,99074.25
2023-11-15T17:28:20.609Z,99073.22
2023-11-15T17:30:47.958Z,99068.84
2023-11-15T17:33:15.138Z,99076.66
2023-11-15T17:35:43.549Z,99070.34
2023-11-15T17:38:10.623Z,99078.78
2023-11-15T17:40:37.673Z,99085.59
2023-11-15T17:43:08.156Z,99086.87
2023-11-15T17:45:35.298Z,99099.75
2023-11-15T17:48:02.521Z,99106.25
2023-11-15T17:50:31.455Z,99108.81
2023-11-15T17:52:59.440Z,99116.63
2023-11-15T17:55:29.515Z,99122.06
2023-11-15T17:57:57.641Z,99120.59
2023-11-15T18:00:24.779Z,99112.59
2023-11-15T18:02:52.236Z,99112.13
2023-11-15T18:05:20.067Z,99104.59
2023-11-15T18:07:47.214Z,99104.25
2023-11-15T18:10:15.929Z,99100.03
2023-11-15T18:12:43.859Z,99099.72
2023-11-15T18:15:17.000Z,99108.66
2023-11-15T18:17:44.904Z,99106.97
2023-11-15T18:20:14.231Z,99113.72
2023-11-15T18:22:46.434Z,99111.31
2023-11-15T18:25:20.158Z,99109.28
2023-11-15T18:27:50.018Z,99119.84
2023-11-15T18:30:19.056Z,99121.19
2023-11-15T18:32:52.191Z,99119.56
2023-11-15T18:35:20.054Z,99127.06
2023-11-15T18:37:47.900Z,99126.69
2023-11-15T18:40:18.466Z,99134.81
2023-11-15T18:42:46.004Z,99140.78
2023-11-15T18:45:13.454Z,99143.59
2023-11-15T18:47:42.405Z,99152.78
2023-11-15T18:50:13.442Z,99157.38
2023-11-15T18:52:44.563Z,99172.69
2023-11-15T18:55:15.157Z,99178.66
2023-11-15T18:57:45.663Z,99179.22
2023-11-15T19:00:16.597Z,99183.63
2023-11-15T19:02:46.150Z,99195.56
2023-11-15T19:05:17.414Z,99194.72
2023-11-15T19:07:45.837Z,99198.72
2023-11-15T19:10:15.079Z,99192.06
2023-11-15T19:12:45.297Z,99185.00
2023-11-15T19:15:13.102Z,99183.41
2023-11-15T19:17:49.806Z,99199.91
2023-11-15T19:20:19.552Z,99196.75
2023-11-15T19:22:47.776Z,99202.94
2023-11-15T19:25:16.154Z,99202.63
2023-11-15T19:27:45.501Z,99205.25
2023-11-15T19:30:13.572Z,99212.84
2023-11-15T19:32:41.494Z,99226.88
2023-11-15T19:35:11.946Z,99229.47
2023-11-15T19:37:44.473Z,99220.44
2023-11-15T19:40:17.339Z,99213.47
2023-11-15T19:42:44.486Z,99223.34
2023-11-15T19:45:12.888Z,99218.19
2023-11-15T19:48:00.095Z,99220.34
2023-11-15T19:50:33.312Z,99218.78
2023-11-15T19:53:04.392Z,99217.72
2023-11-15T19:55:32.342Z,99215.63
2023-11-15T19:57:59.843Z,99219.41
2023-11-15T20:00:26.972Z,99223.41
2023-11-15T20:02:54.433Z,99221.59
2023-11-15T20:05:22.789Z,99214.84
2023-11-15T20:07:50.926Z,99215.09
2023-11-15T20:10:19.989Z,99211.94
2023-11-15T20:12:49.493Z,99209.34
2023-11-15T20:15:16.699Z,99217.00
2023-11-15T20:17:46.196Z,99219.78
2023-11-15T20:20:16.150Z,99224.75
2023-11-15T20:22:51.815Z,99220.34
2023-11-15T20:25:20.578Z,99228.03
2023-11-15T20:27:48.187Z,99228.12
2023-11-15T20:30:16.050Z,99217.28
2023-11-15T20:32:43.392Z,99224.31
2023-11-15T20:35:12.220Z,99220.38
2023-11-15T20:37:39.434Z,99218.56
2023-11-15T20:40:08.863Z,99219.06
2023-11-15T20:42:36.521Z,99222.84
2023-11-15T20:45:04.036Z,99225.78
2023-11-15T20:47:51.139Z,99210.50
2023-11-15T20:50:21.461Z,99217.19
2023-11-15T20:52:49.832Z,99228.72
2023-11-15T20:55:25.548Z,99233.44
2023-11-15T20:57:53.257Z,99239.50
2023-11-15T21:00:27.866Z,99245.91
2023-11-15T21:02:57.375Z,99245.91
2023-11-15T21:05:26.296Z,99248.94
2023-11-15T21:07:53.804Z,99244.38
2023-11-15T21:10:21.646Z,99249.00
2023-11-15T21:12:48.657Z,99251.19
2023-11-15T21:15:16.846Z,99243.28
2023-11-15T21:17:45.768Z,99252.53
2023-11-15T21:20:14.748Z,99253.19
2023-11-15T21:22:45.832Z,99256.31
2023-11-15T21:25:14.157Z,99255.47
2023-11-15T21:27:42.722Z,99252.34
2023-11-15T21:30:11.886Z,99254.19
2023-11-15T21:32:43.569Z,99252.84
2023-11-15T21:35:12.234Z,99253.34
2023-11-15T21:37:44.035Z,99259.81
2023-11-15T21:40:16.674Z,99261.50
2023-11-15T21:42:45.692Z,99262.72
2023-11-15T21:45:24.296Z,99262.13
2023-11-15T21:47:51.810Z,99267.47
2023-11-15T21:50:21.736Z,99267.09
2023-11-15T21:52:50.635Z,99269.22
2023-11-15T21:55:18.631Z,99277.37
2023-11-15T21:57:47.239Z,99273.19
2023-11-15T22:00:17.217Z,99276.06
2023-11-15T22:02:44.850Z,99276.84
2023-11-15T22:05:12.028Z,99272.38
2023-11-15T22:07:40.559Z,99273.38
2023-11-15T22:10:13.596Z,99279.91
2023-11-15T22:12:42.654Z,99276.84
2023-11-15T22:15:20.114Z,99280.16
2023-11-15T22:17:49.225Z,99278.41
2023-11-15T22:20:17.227Z,99285.19
2023-11-15T22:22:45.740Z,99281.72
2023-11-15T22:25:20.763Z,99275.66
2023-11-15T22:27:48.290Z,99283.81
2023-11-15T22:30:16.021Z,99290.53
2023-11-15T22:32:45.598Z,99282.09
2023-11-15T22:35:12.952Z,99289.12
2023-11-15T22:37:40.011Z,99292.56
2023-11-15T22:40:07.568Z,99300.44
2023-11-15T22:42:35.058Z,99303.22
2023-11-15T22:45:03.169Z,99308.34
2023-11-15T22:47:31.494Z,99309.94
2023-11-15T22:49:59.653Z,99311.69
2023-11-15T22:52:28.329Z,99309.19
2023-11-15T22:54:55.455Z,99310.84
2023-11-15T22:57:23.334Z,99303.84
2023-11-15T22:59:52.320Z,99311.81
2023-11-15T23:02:20.429Z,99305.16
2023-11-15T23:04:48.117Z,99311.09
2023-11-15T23:07:21.572Z,99314.19
2023-11-15T23:09:50.542Z,99320.59
2023-11-15T23:12:24.015Z,99320.75
2023-11-15T23:14:51.644Z,99315.34
2023-11-15T23:17:19.516Z,99317.06
2023-11-15T23:19:50.429Z,99320.41
2023-11-15T23:22:17.828Z,99326.84
2023-11-15T23:24:44.912Z,99325.31
2023-11-15T23:27:12.097Z,99331.25
2023-11-15T23:29:39.532Z,99331.97
2023-11-15T23:32:06.991Z,99342.78
2023-11-15T23:34:34.185Z,99339.38
2023-11-15T23:37:01.543Z,99334.91
2023-11-15T23:39:28.656Z,99330.37
2023-11-15T23:41:56.313Z,99327.44
2023-11-15T23:44:23.756Z,99327.91
2023-11-15T23:46:52.892Z,99327.97
2023-11-15T23:49:22.274Z,99335.12
2023-11-15T23:51:49.721Z,99335.84
2023-11-15T23:54:19.253Z,99339.31
2023-11-15T23:56:46.416Z,99342.56
2023-11-15T23:59:16.007Z,99341.78
